Saint George's, Canada
Current Conditions -  °F | °C
As of 11:00 PM on Saturday 20 Dec 2014 (Local Time) from CYJT Reporting Station
Overcast Overcast  
Wind Chill: 27°   Ceiling: 1800
Heat Index: 27°   Visibility: 15mi
Dew Point: 19°   Wind: 3mph
Humidity: 74%   Direction: 80°E
Pressure: 30.33"   Gusts: NA
Location:  48.43°N, 58.5°W
Report Text: CYJT 210200Z 08003KT 040V120 15SM OVC018 M03/M07 A3033 RMK SC8 SLP271
Loading
Personal Weather Stations






























Interactive Weather Map New forecast layout! Learn more

10-Day Weather Forecast

Advertisements
Track Severe Weather on mobile